sensor_id;sensor_type;location;lat;lon;timestamp;P1;durP1;ratioP1;P2;durP2;ratioP2
27402;SDS011;14862;49.494;8.530;2023-06-14T00:02:12;4.93;;;3.97;;
27402;SDS011;14862;49.494;8.530;2023-06-14T00:04:37;7.35;;;4.30;;
27402;SDS011;14862;49.494;8.530;2023-06-14T00:07:04;4.93;;;4.10;;
27402;SDS011;14862;49.494;8.530;2023-06-14T00:09:29;9.10;;;4.38;;
27402;SDS011;14862;49.494;8.530;2023-06-14T00:11:55;6.97;;;3.83;;
27402;SDS011;14862;49.494;8.530;2023-06-14T00:14:20;7.40;;;4.40;;
27402;SDS011;14862;49.494;8.530;2023-06-14T00:16:45;5.07;;;4.13;;
27402;SDS011;14862;49.494;8.530;2023-06-14T00:19:10;6.93;;;3.87;;
27402;SDS011;14862;49.494;8.530;2023-06-14T00:21:38;6.65;;;4.53;;
27402;SDS011;14862;49.494;8.530;2023-06-14T00:24:04;7.78;;;4.15;;
27402;SDS011;14862;49.494;8.530;2023-06-14T00:26:29;8.95;;;4.43;;
27402;SDS011;14862;49.494;8.530;2023-06-14T00:28:55;4.55;;;4.00;;
27402;SDS011;14862;49.494;8.530;2023-06-14T00:31:21;8.27;;;4.38;;
27402;SDS011;14862;49.494;8.530;2023-06-14T00:33:46;5.20;;;3.90;;
27402;SDS011;14862;49.494;8.530;2023-06-14T00:36:12;7.00;;;4.55;;
27402;SDS011;14862;49.494;8.530;2023-06-14T00:38:37;10.82;;;4.32;;
27402;SDS011;14862;49.494;8.530;2023-06-14T00:41:03;9.48;;;4.35;;
27402;SDS011;14862;49.494;8.530;2023-06-14T00:43:28;9.23;;;4.47;;
27402;SDS011;14862;49.494;8.530;2023-06-14T00:45:53;9.48;;;4.60;;
27402;SDS011;14862;49.494;8.530;2023-06-14T00:48:19;5.25;;;4.22;;
27402;SDS011;14862;49.494;8.530;2023-06-14T00:50:45;9.02;;;4.15;;
27402;SDS011;14862;49.494;8.530;2023-06-14T00:53:13;5.30;;;4.30;;
27402;SDS011;14862;49.494;8.530;2023-06-14T00:55:40;7.18;;;4.47;;
27402;SDS011;14862;49.494;8.530;2023-06-14T00:58:05;7.27;;;4.53;;
27402;SDS011;14862;49.494;8.530;2023-06-14T01:00:31;6.05;;;4.28;;
27402;SDS011;14862;49.494;8.530;2023-06-14T01:02:56;7.65;;;4.43;;
27402;SDS011;14862;49.494;8.530;2023-06-14T01:05:22;11.45;;;5.32;;
27402;SDS011;14862;49.494;8.530;2023-06-14T01:15:25;5.43;;;4.40;;
27402;SDS011;14862;49.494;8.530;2023-06-14T01:17:51;5.85;;;4.47;;
27402;SDS011;14862;49.494;8.530;2023-06-14T01:20:17;7.75;;;4.63;;
27402;SDS011;14862;49.494;8.530;2023-06-14T01:22:50;4.45;;;3.95;;
27402;SDS011;14862;49.494;8.530;2023-06-14T01:25:15;6.75;;;4.38;;
27402;SDS011;14862;49.494;8.530;2023-06-14T01:27:41;6.95;;;4.28;;
27402;SDS011;14862;49.494;8.530;2023-06-14T01:30:07;6.72;;;4.55;;
27402;SDS011;14862;49.494;8.530;2023-06-14T01:32:34;8.02;;;5.00;;
27402;SDS011;14862;49.494;8.530;2023-06-14T01:35:00;7.90;;;4.40;;
27402;SDS011;14862;49.494;8.530;2023-06-14T01:37:26;5.93;;;4.30;;
27402;SDS011;14862;49.494;8.530;2023-06-14T01:39:51;6.18;;;4.85;;
27402;SDS011;14862;49.494;8.530;2023-06-14T01:42:17;5.72;;;4.25;;
27402;SDS011;14862;49.494;8.530;2023-06-14T01:44:42;7.57;;;4.68;;
27402;SDS011;14862;49.494;8.530;2023-06-14T01:47:09;8.73;;;4.82;;
27402;SDS011;14862;49.494;8.530;2023-06-14T01:49:34;8.77;;;4.43;;
27402;SDS011;14862;49.494;8.530;2023-06-14T01:52:00;8.07;;;4.95;;
27402;SDS011;14862;49.494;8.530;2023-06-14T01:54:25;7.50;;;4.80;;
27402;SDS011;14862;49.494;8.530;2023-06-14T01:56:51;12.93;;;5.07;;
27402;SDS011;14862;49.494;8.530;2023-06-14T01:59:16;6.88;;;4.38;;
27402;SDS011;14862;49.494;8.530;2023-06-14T02:01:41;9.60;;;5.10;;
27402;SDS011;14862;49.494;8.530;2023-06-14T02:04:06;6.43;;;4.93;;
27402;SDS011;14862;49.494;8.530;2023-06-14T02:06:31;6.97;;;4.47;;
27402;SDS011;14862;49.494;8.530;2023-06-14T02:08:58;7.20;;;5.00;;
27402;SDS011;14862;49.494;8.530;2023-06-14T02:11:23;7.37;;;5.20;;
27402;SDS011;14862;49.494;8.530;2023-06-14T02:13:48;6.37;;;4.03;;
27402;SDS011;14862;49.494;8.530;2023-06-14T02:16:13;8.17;;;5.07;;
27402;SDS011;14862;49.494;8.530;2023-06-14T02:18:39;9.93;;;4.50;;
27402;SDS011;14862;49.494;8.530;2023-06-14T02:21:04;6.90;;;4.97;;
27402;SDS011;14862;49.494;8.530;2023-06-14T02:23:30;7.97;;;5.33;;
27402;SDS011;14862;49.494;8.530;2023-06-14T02:25:55;6.13;;;4.72;;
27402;SDS011;14862;49.494;8.530;2023-06-14T02:28:21;11.05;;;4.90;;
27402;SDS011;14862;49.494;8.530;2023-06-14T02:30:46;6.95;;;4.40;;
27402;SDS011;14862;49.494;8.530;2023-06-14T02:33:11;5.67;;;4.50;;
27402;SDS011;14862;49.494;8.530;2023-06-14T02:35:37;8.45;;;5.00;;
27402;SDS011;14862;49.494;8.530;2023-06-14T02:38:03;7.47;;;4.90;;
27402;SDS011;14862;49.494;8.530;2023-06-14T02:40:28;7.43;;;5.43;;
27402;SDS011;14862;49.494;8.530;2023-06-14T02:42:53;7.32;;;5.20;;
27402;SDS011;14862;49.494;8.530;2023-06-14T02:45:18;10.17;;;4.90;;
27402;SDS011;14862;49.494;8.530;2023-06-14T02:47:44;8.13;;;5.32;;
27402;SDS011;14862;49.494;8.530;2023-06-14T02:50:10;6.63;;;5.05;;
27402;SDS011;14862;49.494;8.530;2023-06-14T02:52:35;5.60;;;4.43;;
27402;SDS011;14862;49.494;8.530;2023-06-14T02:55:01;7.63;;;5.27;;
27402;SDS011;14862;49.494;8.530;2023-06-14T02:57:26;9.32;;;4.93;;
27402;SDS011;14862;49.494;8.530;2023-06-14T02:59:51;8.07;;;5.70;;
27402;SDS011;14862;49.494;8.530;2023-06-14T03:02:17;6.13;;;5.30;;
27402;SDS011;14862;49.494;8.530;2023-06-14T03:04:42;6.30;;;4.85;;
27402;SDS011;14862;49.494;8.530;2023-06-14T03:07:08;6.60;;;5.13;;
27402;SDS011;14862;49.494;8.530;2023-06-14T03:09:37;8.50;;;5.25;;
27402;SDS011;14862;49.494;8.530;2023-06-14T03:12:03;10.32;;;4.90;;
27402;SDS011;14862;49.494;8.530;2023-06-14T03:14:28;6.38;;;4.72;;
27402;SDS011;14862;49.494;8.530;2023-06-14T03:16:55;8.20;;;5.40;;
27402;SDS011;14862;49.494;8.530;2023-06-14T03:19:22;8.40;;;5.45;;
27402;SDS011;14862;49.494;8.530;2023-06-14T03:21:47;18.42;;;5.35;;
27402;SDS011;14862;49.494;8.530;2023-06-14T03:24:12;7.03;;;5.30;;
27402;SDS011;14862;49.494;8.530;2023-06-14T03:26:37;9.75;;;6.00;;
27402;SDS011;14862;49.494;8.530;2023-06-14T03:29:03;9.33;;;6.23;;
27402;SDS011;14862;49.494;8.530;2023-06-14T03:31:28;8.03;;;5.63;;
27402;SDS011;14862;49.494;8.530;2023-06-14T03:33:57;7.47;;;5.38;;
27402;SDS011;14862;49.494;8.530;2023-06-14T03:36:22;6.88;;;5.13;;
27402;SDS011;14862;49.494;8.530;2023-06-14T03:38:48;8.90;;;5.90;;
27402;SDS011;14862;49.494;8.530;2023-06-14T03:41:13;6.93;;;5.17;;
27402;SDS011;14862;49.494;8.530;2023-06-14T03:43:38;8.23;;;5.82;;
27402;SDS011;14862;49.494;8.530;2023-06-14T03:46:03;8.07;;;5.50;;
27402;SDS011;14862;49.494;8.530;2023-06-14T03:48:28;6.87;;;5.37;;
27402;SDS011;14862;49.494;8.530;2023-06-14T03:50:54;12.50;;;5.00;;
27402;SDS011;14862;49.494;8.530;2023-06-14T03:53:20;8.07;;;5.53;;
27402;SDS011;14862;49.494;8.530;2023-06-14T03:55:48;8.25;;;5.78;;
27402;SDS011;14862;49.494;8.530;2023-06-14T03:58:14;9.63;;;5.40;;
27402;SDS011;14862;49.494;8.530;2023-06-14T04:00:39;7.65;;;5.07;;
27402;SDS011;14862;49.494;8.530;2023-06-14T04:03:05;9.52;;;5.28;;
27402;SDS011;14862;49.494;8.530;2023-06-14T04:05:30;7.57;;;5.38;;
27402;SDS011;14862;49.494;8.530;2023-06-14T04:07:56;7.25;;;5.18;;
27402;SDS011;14862;49.494;8.530;2023-06-14T04:10:22;8.77;;;5.55;;
27402;SDS011;14862;49.494;8.530;2023-06-14T04:12:47;9.35;;;5.63;;
27402;SDS011;14862;49.494;8.530;2023-06-14T04:15:12;7.70;;;4.97;;
27402;SDS011;14862;49.494;8.530;2023-06-14T04:17:38;8.20;;;5.30;;
27402;SDS011;14862;49.494;8.530;2023-06-14T04:20:04;12.32;;;5.43;;
27402;SDS011;14862;49.494;8.530;2023-06-14T04:22:31;7.30;;;5.22;;
27402;SDS011;14862;49.494;8.530;2023-06-14T04:24:56;7.25;;;4.82;;
27402;SDS011;14862;49.494;8.530;2023-06-14T04:27:22;8.32;;;4.78;;
27402;SDS011;14862;49.494;8.530;2023-06-14T04:29:53;9.05;;;5.03;;
27402;SDS011;14862;49.494;8.530;2023-06-14T04:32:24;7.22;;;4.97;;
27402;SDS011;14862;49.494;8.530;2023-06-14T04:34:54;8.48;;;5.03;;
27402;SDS011;14862;49.494;8.530;2023-06-14T04:37:23;8.23;;;4.78;;
27402;SDS011;14862;49.494;8.530;2023-06-14T04:39:48;11.02;;;6.05;;
27402;SDS011;14862;49.494;8.530;2023-06-14T04:42:14;6.75;;;4.85;;
27402;SDS011;14862;49.494;8.530;2023-06-14T04:44:40;8.20;;;5.28;;
27402;SDS011;14862;49.494;8.530;2023-06-14T04:47:06;13.70;;;5.00;;
27402;SDS011;14862;49.494;8.530;2023-06-14T04:49:32;7.03;;;4.75;;
27402;SDS011;14862;49.494;8.530;2023-06-14T04:51:59;12.63;;;6.15;;
27402;SDS011;14862;49.494;8.530;2023-06-14T04:54:26;8.55;;;4.68;;
27402;SDS011;14862;49.494;8.530;2023-06-14T04:56:51;9.63;;;4.53;;
27402;SDS011;14862;49.494;8.530;2023-06-14T04:59:18;9.55;;;4.80;;
27402;SDS011;14862;49.494;8.530;2023-06-14T05:01:43;12.60;;;4.90;;
27402;SDS011;14862;49.494;8.530;2023-06-14T05:04:15;10.30;;;5.03;;
27402;SDS011;14862;49.494;8.530;2023-06-14T05:06:41;6.55;;;4.57;;
27402;SDS011;14862;49.494;8.530;2023-06-14T05:09:06;7.30;;;4.65;;
27402;SDS011;14862;49.494;8.530;2023-06-14T05:11:31;9.13;;;5.00;;
27402;SDS011;14862;49.494;8.530;2023-06-14T05:13:56;6.63;;;5.27;;
27402;SDS011;14862;49.494;8.530;2023-06-14T05:16:23;8.82;;;4.60;;
27402;SDS011;14862;49.494;8.530;2023-06-14T05:18:50;6.80;;;4.43;;
27402;SDS011;14862;49.494;8.530;2023-06-14T05:21:15;6.13;;;5.23;;
27402;SDS011;14862;49.494;8.530;2023-06-14T05:23:43;6.47;;;4.40;;
27402;SDS011;14862;49.494;8.530;2023-06-14T05:26:09;7.05;;;4.60;;
27402;SDS011;14862;49.494;8.530;2023-06-14T05:28:35;6.95;;;4.20;;
27402;SDS011;14862;49.494;8.530;2023-06-14T05:31:01;9.95;;;5.07;;
27402;SDS011;14862;49.494;8.530;2023-06-14T05:33:26;10.75;;;4.85;;
27402;SDS011;14862;49.494;8.530;2023-06-14T05:35:51;9.63;;;4.30;;
27402;SDS011;14862;49.494;8.530;2023-06-14T05:38:16;8.93;;;4.50;;
27402;SDS011;14862;49.494;8.530;2023-06-14T05:40:42;12.27;;;4.90;;
27402;SDS011;14862;49.494;8.530;2023-06-14T05:43:07;11.10;;;4.63;;
27402;SDS011;14862;49.494;8.530;2023-06-14T05:45:32;11.20;;;4.50;;
27402;SDS011;14862;49.494;8.530;2023-06-14T05:47:57;8.53;;;3.70;;
27402;SDS011;14862;49.494;8.530;2023-06-14T05:50:22;6.07;;;4.47;;
27402;SDS011;14862;49.494;8.530;2023-06-14T05:52:48;8.07;;;4.03;;
27402;SDS011;14862;49.494;8.530;2023-06-14T05:55:16;11.97;;;4.47;;
27402;SDS011;14862;49.494;8.530;2023-06-14T05:57:41;9.90;;;4.07;;
27402;SDS011;14862;49.494;8.530;2023-06-14T06:00:07;11.25;;;4.05;;
27402;SDS011;14862;49.494;8.530;2023-06-14T06:02:35;11.30;;;4.85;;
27402;SDS011;14862;49.494;8.530;2023-06-14T06:05:00;8.43;;;4.40;;
27402;SDS011;14862;49.494;8.530;2023-06-14T06:07:26;11.53;;;4.80;;
27402;SDS011;14862;49.494;8.530;2023-06-14T06:09:51;6.20;;;3.83;;
27402;SDS011;14862;49.494;8.530;2023-06-14T06:12:16;4.00;;;3.60;;
27402;SDS011;14862;49.494;8.530;2023-06-14T06:14:41;7.10;;;3.50;;
27402;SDS011;14862;49.494;8.530;2023-06-14T06:17:07;7.20;;;3.50;;
27402;SDS011;14862;49.494;8.530;2023-06-14T06:19:32;7.63;;;4.20;;
27402;SDS011;14862;49.494;8.530;2023-06-14T06:21:57;10.48;;;4.32;;
27402;SDS011;14862;49.494;8.530;2023-06-14T06:24:22;7.13;;;3.87;;
27402;SDS011;14862;49.494;8.530;2023-06-14T06:26:47;5.47;;;3.73;;
27402;SDS011;14862;49.494;8.530;2023-06-14T06:29:13;6.55;;;4.00;;
27402;SDS011;14862;49.494;8.530;2023-06-14T06:31:39;8.13;;;3.58;;
27402;SDS011;14862;49.494;8.530;2023-06-14T06:34:04;6.97;;;3.63;;
27402;SDS011;14862;49.494;8.530;2023-06-14T06:36:29;7.70;;;3.50;;
27402;SDS011;14862;49.494;8.530;2023-06-14T06:38:55;8.57;;;3.75;;
27402;SDS011;14862;49.494;8.530;2023-06-14T06:41:20;6.77;;;3.77;;
27402;SDS011;14862;49.494;8.530;2023-06-14T06:43:45;5.63;;;4.13;;
27402;SDS011;14862;49.494;8.530;2023-06-14T06:46:10;7.47;;;4.00;;
27402;SDS011;14862;49.494;8.530;2023-06-14T06:48:35;7.32;;;3.80;;
27402;SDS011;14862;49.494;8.530;2023-06-14T06:51:01;11.17;;;3.60;;
27402;SDS011;14862;49.494;8.530;2023-06-14T06:53:26;10.98;;;4.90;;
27402;SDS011;14862;49.494;8.530;2023-06-14T06:55:51;6.80;;;4.13;;
27402;SDS011;14862;49.494;8.530;2023-06-14T06:58:16;4.60;;;3.83;;
27402;SDS011;14862;49.494;8.530;2023-06-14T07:00:42;5.18;;;3.40;;
27402;SDS011;14862;49.494;8.530;2023-06-14T07:03:07;7.43;;;3.60;;
27402;SDS011;14862;49.494;8.530;2023-06-14T07:05:32;7.80;;;3.42;;
27402;SDS011;14862;49.494;8.530;2023-06-14T07:07:58;8.03;;;3.90;;
27402;SDS011;14862;49.494;8.530;2023-06-14T07:10:23;7.03;;;4.00;;
27402;SDS011;14862;49.494;8.530;2023-06-14T07:12:49;6.82;;;3.70;;
27402;SDS011;14862;49.494;8.530;2023-06-14T07:15:14;6.03;;;4.00;;
27402;SDS011;14862;49.494;8.530;2023-06-14T07:17:40;6.30;;;3.50;;
27402;SDS011;14862;49.494;8.530;2023-06-14T07:20:05;5.27;;;3.20;;
27402;SDS011;14862;49.494;8.530;2023-06-14T07:22:36;5.68;;;3.40;;
27402;SDS011;14862;49.494;8.530;2023-06-14T07:25:01;6.23;;;3.63;;
27402;SDS011;14862;49.494;8.530;2023-06-14T07:27:28;4.72;;;3.20;;
27402;SDS011;14862;49.494;8.530;2023-06-14T07:29:53;8.82;;;4.20;;
27402;SDS011;14862;49.494;8.530;2023-06-14T07:32:18;10.17;;;3.20;;
27402;SDS011;14862;49.494;8.530;2023-06-14T07:34:43;4.53;;;3.10;;
27402;SDS011;14862;49.494;8.530;2023-06-14T07:37:09;6.27;;;3.30;;
27402;SDS011;14862;49.494;8.530;2023-06-14T07:39:34;7.70;;;3.42;;
27402;SDS011;14862;49.494;8.530;2023-06-14T07:41:59;6.03;;;3.55;;
27402;SDS011;14862;49.494;8.530;2023-06-14T07:44:25;5.78;;;2.95;;
27402;SDS011;14862;49.494;8.530;2023-06-14T07:46:51;6.13;;;3.95;;
27402;SDS011;14862;49.494;8.530;2023-06-14T07:49:16;4.63;;;3.97;;
27402;SDS011;14862;49.494;8.530;2023-06-14T07:51:41;6.82;;;3.63;;
27402;SDS011;14862;49.494;8.530;2023-06-14T07:54:08;6.63;;;3.22;;
27402;SDS011;14862;49.494;8.530;2023-06-14T07:56:33;5.35;;;3.38;;
27402;SDS011;14862;49.494;8.530;2023-06-14T07:58:59;8.05;;;3.53;;
27402;SDS011;14862;49.494;8.530;2023-06-14T08:01:24;4.53;;;2.55;;
27402;SDS011;14862;49.494;8.530;2023-06-14T08:03:50;5.80;;;3.42;;
27402;SDS011;14862;49.494;8.530;2023-06-14T08:06:16;4.45;;;3.35;;
27402;SDS011;14862;49.494;8.530;2023-06-14T08:08:41;3.53;;;3.20;;
27402;SDS011;14862;49.494;8.530;2023-06-14T08:11:06;8.30;;;3.45;;
27402;SDS011;14862;49.494;8.530;2023-06-14T08:13:31;7.47;;;3.50;;
27402;SDS011;14862;49.494;8.530;2023-06-14T08:15:57;7.63;;;3.60;;
27402;SDS011;14862;49.494;8.530;2023-06-14T08:18:23;5.55;;;3.22;;
27402;SDS011;14862;49.494;8.530;2023-06-14T08:20:48;4.18;;;3.28;;
27402;SDS011;14862;49.494;8.530;2023-06-14T08:23:15;6.25;;;3.10;;
27402;SDS011;14862;49.494;8.530;2023-06-14T08:25:43;4.47;;;3.20;;
27402;SDS011;14862;49.494;8.530;2023-06-14T08:28:09;8.93;;;2.97;;
27402;SDS011;14862;49.494;8.530;2023-06-14T08:30:34;5.18;;;3.67;;
27402;SDS011;14862;49.494;8.530;2023-06-14T08:32:59;6.03;;;3.08;;
27402;SDS011;14862;49.494;8.530;2023-06-14T08:35:25;5.43;;;3.28;;
27402;SDS011;14862;49.494;8.530;2023-06-14T08:37:50;5.35;;;3.10;;
27402;SDS011;14862;49.494;8.530;2023-06-14T08:40:22;10.05;;;3.60;;
27402;SDS011;14862;49.494;8.530;2023-06-14T08:42:50;5.65;;;3.17;;
27402;SDS011;14862;49.494;8.530;2023-06-14T08:45:16;5.32;;;3.53;;
27402;SDS011;14862;49.494;8.530;2023-06-14T08:47:41;5.20;;;3.03;;
27402;SDS011;14862;49.494;8.530;2023-06-14T08:50:08;7.90;;;3.20;;
27402;SDS011;14862;49.494;8.530;2023-06-14T08:52:35;5.88;;;3.22;;
27402;SDS011;14862;49.494;8.530;2023-06-14T08:55:05;7.20;;;2.88;;
27402;SDS011;14862;49.494;8.530;2023-06-14T08:57:30;5.97;;;2.83;;
27402;SDS011;14862;49.494;8.530;2023-06-14T08:59:56;8.90;;;2.65;;
27402;SDS011;14862;49.494;8.530;2023-06-14T09:02:22;3.93;;;3.00;;
27402;SDS011;14862;49.494;8.530;2023-06-14T09:04:47;5.30;;;3.08;;
27402;SDS011;14862;49.494;8.530;2023-06-14T09:07:14;3.17;;;2.60;;
27402;SDS011;14862;49.494;8.530;2023-06-14T09:09:40;3.85;;;2.80;;
27402;SDS011;14862;49.494;8.530;2023-06-14T09:12:07;4.57;;;3.47;;
27402;SDS011;14862;49.494;8.530;2023-06-14T09:14:35;4.95;;;2.60;;
27402;SDS011;14862;49.494;8.530;2023-06-14T09:17:03;7.45;;;3.15;;
27402;SDS011;14862;49.494;8.530;2023-06-14T09:19:28;5.35;;;2.67;;
27402;SDS011;14862;49.494;8.530;2023-06-14T09:21:53;8.43;;;3.10;;
27402;SDS011;14862;49.494;8.530;2023-06-14T09:24:20;7.55;;;4.20;;
27402;SDS011;14862;49.494;8.530;2023-06-14T09:26:50;5.32;;;3.30;;
27402;SDS011;14862;49.494;8.530;2023-06-14T09:29:16;3.97;;;3.38;;
27402;SDS011;14862;49.494;8.530;2023-06-14T09:31:41;5.10;;;2.95;;
27402;SDS011;14862;49.494;8.530;2023-06-14T09:34:06;4.33;;;2.70;;
27402;SDS011;14862;49.494;8.530;2023-06-14T09:36:32;4.80;;;2.85;;
27402;SDS011;14862;49.494;8.530;2023-06-14T09:39:03;6.28;;;3.15;;
27402;SDS011;14862;49.494;8.530;2023-06-14T09:41:33;3.72;;;2.80;;
27402;SDS011;14862;49.494;8.530;2023-06-14T09:43:59;4.15;;;2.88;;
27402;SDS011;14862;49.494;8.530;2023-06-14T09:46:28;3.40;;;2.83;;
27402;SDS011;14862;49.494;8.530;2023-06-14T09:48:54;2.60;;;2.40;;
27402;SDS011;14862;49.494;8.530;2023-06-14T09:51:20;3.83;;;3.10;;
27402;SDS011;14862;49.494;8.530;2023-06-14T09:53:46;4.82;;;3.03;;
27402;SDS011;14862;49.494;8.530;2023-06-14T09:56:14;8.73;;;2.85;;
27402;SDS011;14862;49.494;8.530;2023-06-14T09:58:40;5.25;;;3.00;;
27402;SDS011;14862;49.494;8.530;2023-06-14T10:01:06;4.30;;;2.88;;
27402;SDS011;14862;49.494;8.530;2023-06-14T10:03:33;4.70;;;2.85;;
27402;SDS011;14862;49.494;8.530;2023-06-14T10:05:59;3.72;;;2.90;;
27402;SDS011;14862;49.494;8.530;2023-06-14T10:08:27;6.80;;;3.05;;
27402;SDS011;14862;49.494;8.530;2023-06-14T10:10:55;3.75;;;3.10;;
27402;SDS011;14862;49.494;8.530;2023-06-14T10:13:21;7.90;;;3.50;;
27402;SDS011;14862;49.494;8.530;2023-06-14T10:18:32;4.45;;;2.95;;
27402;SDS011;14862;49.494;8.530;2023-06-14T10:21:18;4.35;;;3.50;;
27402;SDS011;14862;49.494;8.530;2023-06-14T10:23:46;6.28;;;3.30;;
27402;SDS011;14862;49.494;8.530;2023-06-14T10:26:22;3.72;;;3.05;;
27402;SDS011;14862;49.494;8.530;2023-06-14T10:28:57;6.63;;;3.03;;
27402;SDS011;14862;49.494;8.530;2023-06-14T10:31:23;5.05;;;2.80;;
27402;SDS011;14862;49.494;8.530;2023-06-14T10:34:04;10.15;;;3.30;;
27402;SDS011;14862;49.494;8.530;2023-06-14T10:36:29;7.15;;;3.13;;
27402;SDS011;14862;49.494;8.530;2023-06-14T10:39:16;4.78;;;3.28;;
27402;SDS011;14862;49.494;8.530;2023-06-14T10:41:42;4.18;;;2.85;;
27402;SDS011;14862;49.494;8.530;2023-06-14T10:46:48;3.40;;;3.00;;
27402;SDS011;14862;49.494;8.530;2023-06-14T10:49:16;6.15;;;3.72;;
27402;SDS011;14862;49.494;8.530;2023-06-14T10:51:51;5.60;;;2.83;;
27402;SDS011;14862;49.494;8.530;2023-06-14T10:54:16;6.35;;;3.20;;
27402;SDS011;14862;49.494;8.530;2023-06-14T10:59:13;4.95;;;3.28;;
27402;SDS011;14862;49.494;8.530;2023-06-14T11:01:41;5.80;;;3.15;;
27402;SDS011;14862;49.494;8.530;2023-06-14T11:04:09;4.28;;;3.30;;
27402;SDS011;14862;49.494;8.530;2023-06-14T11:06:47;9.73;;;3.67;;
27402;SDS011;14862;49.494;8.530;2023-06-14T11:09:21;3.90;;;3.15;;
27402;SDS011;14862;49.494;8.530;2023-06-14T11:11:51;11.98;;;3.15;;
27402;SDS011;14862;49.494;8.530;2023-06-14T11:14:18;5.05;;;3.15;;
27402;SDS011;14862;49.494;8.530;2023-06-14T11:16:47;5.35;;;2.78;;
27402;SDS011;14862;49.494;8.530;2023-06-14T11:19:13;11.60;;;3.35;;
27402;SDS011;14862;49.494;8.530;2023-06-14T11:21:39;3.40;;;2.97;;
27402;SDS011;14862;49.494;8.530;2023-06-14T11:24:09;6.30;;;3.42;;
27402;SDS011;14862;49.494;8.530;2023-06-14T11:26:37;6.45;;;2.80;;
27402;SDS011;14862;49.494;8.530;2023-06-14T11:29:02;6.57;;;2.92;;
27402;SDS011;14862;49.494;8.530;2023-06-14T11:31:27;6.72;;;2.92;;
27402;SDS011;14862;49.494;8.530;2023-06-14T11:33:53;7.50;;;2.95;;
27402;SDS011;14862;49.494;8.530;2023-06-14T11:36:19;4.53;;;2.65;;
27402;SDS011;14862;49.494;8.530;2023-06-14T11:38:44;6.88;;;2.90;;
27402;SDS011;14862;49.494;8.530;2023-06-14T11:41:10;4.20;;;2.92;;
27402;SDS011;14862;49.494;8.530;2023-06-14T11:43:35;3.90;;;2.25;;
27402;SDS011;14862;49.494;8.530;2023-06-14T11:46:01;4.63;;;2.40;;
27402;SDS011;14862;49.494;8.530;2023-06-14T11:48:36;3.10;;;2.80;;
27402;SDS011;14862;49.494;8.530;2023-06-14T11:51:01;3.95;;;2.90;;
27402;SDS011;14862;49.494;8.530;2023-06-14T11:53:26;6.65;;;3.20;;
27402;SDS011;14862;49.494;8.530;2023-06-14T11:55:52;3.08;;;2.50;;
27402;SDS011;14862;49.494;8.530;2023-06-14T11:58:18;7.43;;;3.10;;
27402;SDS011;14862;49.494;8.530;2023-06-14T12:00:43;6.25;;;2.90;;
27402;SDS011;14862;49.494;8.530;2023-06-14T12:03:08;4.20;;;3.10;;
27402;SDS011;14862;49.494;8.530;2023-06-14T12:05:34;8.20;;;3.30;;
27402;SDS011;14862;49.494;8.530;2023-06-14T12:07:59;7.10;;;3.35;;
27402;SDS011;14862;49.494;8.530;2023-06-14T12:10:25;2.90;;;2.60;;
27402;SDS011;14862;49.494;8.530;2023-06-14T12:12:50;8.73;;;3.33;;
27402;SDS011;14862;49.494;8.530;2023-06-14T12:15:15;5.00;;;3.07;;
27402;SDS011;14862;49.494;8.530;2023-06-14T12:17:41;8.10;;;3.05;;
27402;SDS011;14862;49.494;8.530;2023-06-14T12:20:08;3.10;;;2.80;;
27402;SDS011;14862;49.494;8.530;2023-06-14T12:22:38;3.90;;;3.10;;
27402;SDS011;14862;49.494;8.530;2023-06-14T12:25:04;6.18;;;3.00;;
27402;SDS011;14862;49.494;8.530;2023-06-14T12:27:29;5.10;;;3.70;;
27402;SDS011;14862;49.494;8.530;2023-06-14T12:30:01;4.90;;;3.40;;
27402;SDS011;14862;49.494;8.530;2023-06-14T12:32:26;9.00;;;2.72;;
27402;SDS011;14862;49.494;8.530;2023-06-14T12:34:52;4.00;;;3.03;;
27402;SDS011;14862;49.494;8.530;2023-06-14T12:37:17;5.83;;;2.80;;
27402;SDS011;14862;49.494;8.530;2023-06-14T12:39:42;3.28;;;2.92;;
27402;SDS011;14862;49.494;8.530;2023-06-14T12:42:07;5.03;;;3.07;;
27402;SDS011;14862;49.494;8.530;2023-06-14T12:44:32;4.43;;;2.70;;
27402;SDS011;14862;49.494;8.530;2023-06-14T12:47:00;4.57;;;2.88;;
27402;SDS011;14862;49.494;8.530;2023-06-14T12:49:26;6.82;;;3.13;;
27402;SDS011;14862;49.494;8.530;2023-06-14T12:51:51;3.55;;;3.05;;
27402;SDS011;14862;49.494;8.530;2023-06-14T12:54:16;8.40;;;3.00;;
27402;SDS011;14862;49.494;8.530;2023-06-14T12:56:42;5.28;;;3.33;;
27402;SDS011;14862;49.494;8.530;2023-06-14T12:59:09;5.97;;;2.78;;
27402;SDS011;14862;49.494;8.530;2023-06-14T13:01:37;4.88;;;2.92;;
27402;SDS011;14862;49.494;8.530;2023-06-14T13:04:02;7.45;;;3.10;;
27402;SDS011;14862;49.494;8.530;2023-06-14T13:06:28;6.60;;;3.10;;
27402;SDS011;14862;49.494;8.530;2023-06-14T13:08:54;3.78;;;2.97;;
27402;SDS011;14862;49.494;8.530;2023-06-14T13:11:22;5.90;;;3.13;;
27402;SDS011;14862;49.494;8.530;2023-06-14T13:13:47;2.88;;;2.58;;
27402;SDS011;14862;49.494;8.530;2023-06-14T13:16:13;4.57;;;2.80;;
27402;SDS011;14862;49.494;8.530;2023-06-14T13:18:39;5.63;;;2.83;;
27402;SDS011;14862;49.494;8.530;2023-06-14T13:21:04;3.37;;;2.73;;
27402;SDS011;14862;49.494;8.530;2023-06-14T13:23:30;5.82;;;2.90;;
27402;SDS011;14862;49.494;8.530;2023-06-14T13:25:55;5.07;;;3.03;;
27402;SDS011;14862;49.494;8.530;2023-06-14T13:28:20;5.67;;;3.53;;
27402;SDS011;14862;49.494;8.530;2023-06-14T13:30:46;6.93;;;2.95;;
27402;SDS011;14862;49.494;8.530;2023-06-14T13:33:11;5.82;;;3.17;;
27402;SDS011;14862;49.494;8.530;2023-06-14T13:35:36;6.30;;;3.00;;
27402;SDS011;14862;49.494;8.530;2023-06-14T13:38:01;7.47;;;3.40;;
27402;SDS011;14862;49.494;8.530;2023-06-14T13:40:27;4.10;;;2.90;;
27402;SDS011;14862;49.494;8.530;2023-06-14T13:42:52;3.40;;;3.10;;
27402;SDS011;14862;49.494;8.530;2023-06-14T13:45:17;4.00;;;3.60;;
27402;SDS011;14862;49.494;8.530;2023-06-14T13:47:42;8.13;;;3.22;;
27402;SDS011;14862;49.494;8.530;2023-06-14T13:50:08;5.05;;;3.20;;
27402;SDS011;14862;49.494;8.530;2023-06-14T13:52:33;4.68;;;2.67;;
27402;SDS011;14862;49.494;8.530;2023-06-14T13:54:59;5.00;;;3.13;;
27402;SDS011;14862;49.494;8.530;2023-06-14T13:57:25;7.43;;;2.90;;
27402;SDS011;14862;49.494;8.530;2023-06-14T13:59:50;4.78;;;3.35;;
27402;SDS011;14862;49.494;8.530;2023-06-14T14:02:18;3.97;;;3.55;;
27402;SDS011;14862;49.494;8.530;2023-06-14T14:04:43;5.57;;;2.92;;
27402;SDS011;14862;49.494;8.530;2023-06-14T14:07:09;6.30;;;3.63;;
27402;SDS011;14862;49.494;8.530;2023-06-14T14:09:34;4.97;;;3.60;;
27402;SDS011;14862;49.494;8.530;2023-06-14T14:11:59;7.88;;;3.58;;
27402;SDS011;14862;49.494;8.530;2023-06-14T14:14:27;9.07;;;3.28;;
27402;SDS011;14862;49.494;8.530;2023-06-14T14:16:52;5.82;;;3.20;;
27402;SDS011;14862;49.494;8.530;2023-06-14T14:19:19;7.35;;;3.55;;
27402;SDS011;14862;49.494;8.530;2023-06-14T14:21:44;8.43;;;3.58;;
27402;SDS011;14862;49.494;8.530;2023-06-14T14:24:10;5.35;;;3.05;;
27402;SDS011;14862;49.494;8.530;2023-06-14T14:26:35;4.30;;;3.35;;
27402;SDS011;14862;49.494;8.530;2023-06-14T14:29:00;5.55;;;3.70;;
27402;SDS011;14862;49.494;8.530;2023-06-14T14:31:27;4.93;;;3.10;;
27402;SDS011;14862;49.494;8.530;2023-06-14T14:33:52;5.63;;;3.83;;
27402;SDS011;14862;49.494;8.530;2023-06-14T14:36:17;9.97;;;3.10;;
27402;SDS011;14862;49.494;8.530;2023-06-14T14:38:43;5.27;;;3.00;;
27402;SDS011;14862;49.494;8.530;2023-06-14T14:41:08;6.70;;;3.22;;
27402;SDS011;14862;49.494;8.530;2023-06-14T14:43:33;9.43;;;3.83;;
27402;SDS011;14862;49.494;8.530;2023-06-14T14:45:59;7.87;;;3.40;;
27402;SDS011;14862;49.494;8.530;2023-06-14T14:48:24;5.73;;;3.33;;
27402;SDS011;14862;49.494;8.530;2023-06-14T14:50:50;6.45;;;3.50;;
27402;SDS011;14862;49.494;8.530;2023-06-14T14:53:15;4.60;;;3.60;;
27402;SDS011;14862;49.494;8.530;2023-06-14T14:55:41;5.05;;;3.15;;